createdAt,value
2017-11-17T00:02:08.440Z,71.47
2017-11-17T00:12:12.407Z,81.57
2017-11-17T00:22:16.357Z,78.85
2017-11-17T00:32:20.287Z,74.13
2017-11-17T00:42:23.593Z,87.30
2017-11-17T00:52:26.749Z,82.70
2017-11-17T01:02:29.981Z,82.43
2017-11-17T01:12:33.150Z,90.73
2017-11-17T01:22:36.332Z,71.10
2017-11-17T01:32:39.506Z,61.93
2017-11-17T01:42:42.757Z,75.20
2017-11-17T01:52:45.946Z,58.50
2017-11-17T02:02:49.134Z,72.73
2017-11-17T02:12:52.298Z,68.10
2017-11-17T02:22:55.476Z,81.53
2017-11-17T02:32:58.694Z,85.23
2017-11-17T02:43:01.837Z,81.27
2017-11-17T02:53:05.010Z,76.37
2017-11-17T03:03:08.128Z,81.97
2017-11-17T03:13:11.450Z,77.23
2017-11-17T03:23:14.615Z,82.20
2017-11-17T03:33:17.826Z,86.80
2017-11-17T03:43:21.013Z,77.70
2017-11-17T03:53:24.210Z,80.13
2017-11-17T04:03:27.360Z,98.47
2017-11-17T04:13:30.622Z,117.30
2017-11-17T04:23:33.798Z,84.33
2017-11-17T04:33:36.980Z,97.27
2017-11-17T04:43:40.141Z,76.60
2017-11-17T04:53:44.098Z,99.07
2017-11-17T05:03:48.040Z,91.28
2017-11-17T05:13:51.228Z,92.80
2017-11-17T05:23:54.460Z,88.07
2017-11-17T05:33:57.658Z,94.07
2017-11-17T05:44:00.866Z,104.20
2017-11-17T05:54:04.042Z,92.30
2017-11-17T06:04:08.007Z,98.60
2017-11-17T06:14:11.964Z,98.97
2017-11-17T06:24:16.079Z,116.27
2017-11-17T06:34:19.273Z,102.60
2017-11-17T06:44:22.479Z,126.43
2017-11-17T06:54:25.729Z,130.27
2017-11-17T07:04:29.707Z,116.70
2017-11-17T07:14:32.890Z,106.50
2017-11-17T07:24:36.083Z,119.23
2017-11-17T07:34:39.287Z,108.17
2017-11-17T07:44:42.524Z,106.32
2017-11-17T07:54:45.703Z,122.47
2017-11-17T08:04:48.899Z,93.70
2017-11-17T08:14:52.086Z,110.33
2017-11-17T08:24:55.440Z,99.53
2017-11-17T08:34:58.633Z,119.53
2017-11-17T08:45:02.584Z,117.23
2017-11-17T08:55:06.527Z,119.00
2017-11-17T09:05:09.764Z,106.03
2017-11-17T09:15:12.946Z,103.03
2017-11-17T09:25:16.122Z,118.87
2017-11-17T09:35:19.311Z,117.47
2017-11-17T09:45:22.495Z,124.80
2017-11-17T09:55:25.682Z,129.60
2017-11-17T10:05:29.635Z,121.00
2017-11-17T10:15:33.637Z,145.23
2017-11-17T10:25:36.775Z,151.40
2017-11-17T10:35:39.996Z,126.83
2017-11-17T10:45:43.193Z,130.60
2017-11-17T10:55:47.163Z,124.83
2017-11-17T11:05:50.335Z,108.93
2017-11-17T11:15:53.538Z,127.20
2017-11-17T11:25:56.695Z,115.00
2017-11-17T11:35:59.880Z,97.33
2017-11-17T11:46:03.060Z,117.23
2017-11-17T11:56:06.263Z,101.83
2017-11-17T12:06:09.487Z,106.03
2017-11-17T12:16:12.682Z,109.47
2017-11-17T12:26:15.884Z,128.97
2017-11-17T12:36:19.843Z,109.97
2017-11-17T12:46:23.883Z,138.90
2017-11-17T12:56:27.168Z,114.10
2017-11-17T13:06:30.419Z,128.67
2017-11-17T13:16:33.595Z,116.43
2017-11-17T13:26:36.786Z,122.97
2017-11-17T13:36:40.012Z,122.90
2017-11-17T13:46:43.187Z,124.13
2017-11-17T13:56:46.395Z,108.23
2017-11-17T14:06:49.603Z,128.00
2017-11-17T14:16:53.612Z,126.77
2017-11-17T14:26:56.805Z,130.10
2017-11-17T14:37:00.754Z,120.13
2017-11-17T14:47:04.726Z,119.65
2017-11-17T14:57:07.892Z,122.93
2017-11-17T15:07:11.073Z,121.53
2017-11-17T15:17:14.227Z,121.00
2017-11-17T15:27:18.192Z,115.67
2017-11-17T15:37:21.407Z,142.90
2017-11-17T15:47:25.354Z,157.60
2017-11-17T15:57:28.492Z,140.50
2017-11-17T16:07:32.459Z,124.70
2017-11-17T16:17:36.438Z,133.90
2017-11-17T16:27:39.768Z,149.90
2017-11-17T16:37:43.734Z,147.37
2017-11-17T16:47:47.774Z,140.10
2017-11-17T16:57:51.720Z,154.87
2017-11-17T17:07:54.921Z,148.10
2017-11-17T17:17:58.079Z,154.17
2017-11-17T17:28:01.251Z,152.57
2017-11-17T17:38:04.410Z,159.97
2017-11-17T17:48:07.627Z,173.98
2017-11-17T17:58:10.831Z,154.57
2017-11-17T18:08:13.991Z,141.47
2017-11-17T18:18:17.914Z,164.30
2017-11-17T18:28:21.095Z,140.00
2017-11-17T18:38:24.251Z,141.60
2017-11-17T18:48:27.425Z,153.93
2017-11-17T18:58:30.666Z,175.23
2017-11-17T19:08:33.819Z,150.07
2017-11-17T19:18:37.811Z,165.00
2017-11-17T19:28:41.011Z,166.90
2017-11-17T19:38:44.237Z,214.30
2017-11-17T19:48:47.418Z,169.30
2017-11-17T19:58:50.667Z,151.50
2017-11-17T20:08:53.877Z,175.43
2017-11-17T20:18:58.013Z,164.83
2017-11-17T20:29:01.405Z,190.03
2017-11-17T20:39:04.633Z,181.63
2017-11-17T20:49:07.850Z,166.60
2017-11-17T20:59:11.851Z,161.53
2017-11-17T21:09:15.879Z,190.43
2017-11-17T21:19:19.823Z,184.23
2017-11-17T21:29:23.819Z,167.37
2017-11-17T21:39:26.974Z,178.03
2017-11-17T21:49:30.237Z,177.97
2017-11-17T21:59:33.440Z,158.17
2017-11-17T22:09:36.660Z,179.80
2017-11-17T22:19:39.878Z,160.27
2017-11-17T22:29:43.094Z,156.50
2017-11-17T22:39:46.298Z,154.70
2017-11-17T22:49:49.505Z,148.43
2017-11-17T22:59:52.732Z,148.50
2017-11-17T23:09:55.936Z,172.47
2017-11-17T23:19:59.096Z,141.23
2017-11-17T23:30:03.062Z,168.93
2017-11-17T23:40:06.206Z,159.00
2017-11-17T23:50:09.354Z,133.00
